Time;durP1;ratioP1;P1;durP2;ratioP2;P2;SDS_P1;SDS_P2;PMS_P1;PMS_P2;Temp;Humidity;BMP_temperature;BMP_pressure;BME280_temperature;BME280_humidity;BME280_pressure;Samples;Min_cycle;Max_cycle;Signal;HPM_P1;HPM_P2
2022/01/01 00:01:41;;;;;;;24.88;20.00;;;13.70;99.90;;;;;;5025984;28;20199;-75
2022/01/01 00:04:09;;;;;;;28.75;21.45;;;13.60;99.90;;;;;;5006951;28;20196;-75
2022/01/01 00:07:08;;;;;;;30.02;20.65;;;13.60;99.90;;;;;;5020808;28;20682;-74
2022/01/01 00:09:35;;;;;;;24.88;19.52;;;13.60;99.90;;;;;;5037090;28;20665;-74
2022/01/01 00:12:05;;;;;;;25.77;19.52;;;13.60;99.90;;;;;;5012541;28;20183;-74
2022/01/01 00:14:33;;;;;;;26.30;18.17;;;13.60;99.90;;;;;;5005564;28;20184;-74
2022/01/01 00:17:00;;;;;;;23.63;17.48;;;13.60;99.90;;;;;;5009054;28;20223;-74
2022/01/01 00:19:27;;;;;;;24.40;15.70;;;13.60;99.90;;;;;;5037988;28;20223;-74
2022/01/01 00:21:55;;;;;;;23.95;17.33;;;13.60;99.90;;;;;;5028312;28;20222;-74
2022/01/01 00:24:22;;;;;;;23.23;16.33;;;13.60;99.90;;;;;;5013340;28;20191;-74
2022/01/01 00:26:50;;;;;;;19.73;15.00;;;13.60;99.90;;;;;;5028161;28;20223;-74
2022/01/01 00:29:19;;;;;;;23.80;14.90;;;13.60;99.90;;;;;;5019830;28;20207;-75
2022/01/01 00:31:46;;;;;;;24.55;13.77;;;13.60;99.90;;;;;;5007227;28;20202;-74
2022/01/01 00:34:14;;;;;;;21.92;14.48;;;13.60;99.90;;;;;;5025588;28;20658;-74
2022/01/01 00:36:41;;;;;;;20.35;13.00;;;13.60;99.90;;;;;;5024725;28;20224;-75
2022/01/01 00:39:08;;;;;;;23.38;13.88;;;13.50;99.90;;;;;;5005601;28;20207;-75
2022/01/01 00:41:36;;;;;;;21.60;13.63;;;13.50;99.90;;;;;;5015481;28;20199;-74
2022/01/01 00:44:04;;;;;;;20.38;14.02;;;13.50;99.90;;;;;;5032689;28;20278;-74
2022/01/01 00:46:33;;;;;;;19.83;13.23;;;13.50;99.90;;;;;;4993632;28;20212;-74
2022/01/01 00:49:00;;;;;;;18.98;13.23;;;13.50;99.90;;;;;;4991276;28;20192;-74
2022/01/01 00:51:28;;;;;;;22.25;14.07;;;13.50;99.90;;;;;;5020193;28;20238;-74
2022/01/01 00:53:56;;;;;;;22.80;15.05;;;13.50;99.90;;;;;;5012100;28;20208;-74
2022/01/01 00:56:23;;;;;;;23.67;14.95;;;13.50;99.90;;;;;;5013417;28;20233;-74
2022/01/01 00:58:51;;;;;;;26.27;15.48;;;13.50;99.90;;;;;;5006184;28;20748;-74
2022/01/01 01:01:18;;;;;;;22.83;15.20;;;13.50;99.90;;;;;;5020369;28;20199;-74
2022/01/01 01:03:47;;;;;;;24.45;14.82;;;13.60;99.90;;;;;;5011950;28;20188;-74
2022/01/01 01:06:14;;;;;;;23.10;14.35;;;13.50;99.90;;;;;;5009478;28;20226;-74
2022/01/01 01:09:00;;;;;;;24.17;14.10;;;13.50;99.90;;;;;;5023645;28;20184;-74
2022/01/01 01:11:28;;;;;;;23.52;14.43;;;13.50;99.90;;;;;;5013901;28;20199;-74
2022/01/01 01:13:58;;;;;;;21.00;13.20;;;13.50;99.90;;;;;;5010920;28;20200;-74
2022/01/01 01:16:27;;;;;;;22.02;12.98;;;13.50;99.90;;;;;;5027569;28;20215;-74
2022/01/01 01:18:59;;;;;;;23.77;14.57;;;13.50;99.90;;;;;;5016778;28;20215;-74
2022/01/01 01:21:27;;;;;;;21.60;12.48;;;13.60;99.90;;;;;;4992792;28;20208;-75
2022/01/01 01:23:55;;;;;;;18.35;13.23;;;13.50;99.90;;;;;;5018738;28;20196;-74
2022/01/01 01:26:23;;;;;;;24.70;14.65;;;13.60;99.90;;;;;;5009192;28;20701;-75
2022/01/01 01:28:52;;;;;;;17.67;12.45;;;13.50;99.90;;;;;;5026599;28;20199;-74
2022/01/01 01:31:20;;;;;;;21.38;13.85;;;13.50;99.90;;;;;;5026845;28;20211;-74
2022/01/01 01:33:47;;;;;;;21.40;13.00;;;13.50;99.90;;;;;;5027267;28;20649;-74
2022/01/01 01:36:16;;;;;;;21.15;13.38;;;13.50;99.90;;;;;;5018406;28;20231;-75
2022/01/01 01:38:43;;;;;;;20.25;13.32;;;13.40;99.90;;;;;;4991802;28;20200;-74
2022/01/01 01:41:11;;;;;;;21.50;12.43;;;13.50;99.90;;;;;;4992052;28;20200;-75
2022/01/01 01:43:38;;;;;;;25.40;13.05;;;13.40;99.90;;;;;;5026583;28;20211;-75
2022/01/01 01:46:39;;;;;;;21.58;12.93;;;13.40;99.90;;;;;;5013274;28;20211;-74
2022/01/01 01:49:06;;;;;;;23.55;13.27;;;13.40;99.90;;;;;;5001925;28;20192;-75
2022/01/01 01:51:36;;;;;;;19.73;13.10;;;13.40;99.90;;;;;;5026214;28;20207;-74
2022/01/01 01:54:04;;;;;;;25.48;13.23;;;13.40;99.90;;;;;;5010339;28;20208;-74
2022/01/01 01:56:32;;;;;;;20.10;12.25;;;13.40;99.90;;;;;;5026757;28;20573;-75
2022/01/01 01:58:59;;;;;;;23.10;12.48;;;13.40;99.90;;;;;;5010375;28;20199;-75
2022/01/01 02:01:27;;;;;;;24.05;11.85;;;13.50;99.90;;;;;;5010390;28;20200;-74
2022/01/01 02:03:57;;;;;;;20.10;12.07;;;13.40;99.90;;;;;;5012374;28;20203;-74
2022/01/01 02:06:25;;;;;;;21.35;11.85;;;13.40;99.90;;;;;;5025560;28;20231;-75
2022/01/01 02:08:54;;;;;;;17.58;10.80;;;13.40;99.90;;;;;;5026591;28;20200;-75
2022/01/01 02:11:23;;;;;;;19.25;10.80;;;13.40;99.90;;;;;;5020033;28;20196;-74
2022/01/01 02:14:13;;;;;;;18.10;10.90;;;13.40;99.90;;;;;;5026698;28;22762;-74
2022/01/01 02:19:27;;;;;;;19.15;11.05;;;13.40;99.90;;;;;;5016068;28;20202;-75
2022/01/01 02:22:00;;;;;;;17.98;10.93;;;13.40;99.90;;;;;;5018925;28;20200;-74
2022/01/01 02:24:27;;;;;;;19.92;11.38;;;13.40;99.90;;;;;;5011092;28;20200;-74
2022/01/01 02:26:55;;;;;;;19.48;12.20;;;13.40;99.90;;;;;;5019990;28;20233;-74
2022/01/01 02:29:22;;;;;;;15.57;10.70;;;13.40;99.90;;;;;;5050243;28;20214;-75
2022/01/01 02:31:50;;;;;;;17.90;10.73;;;13.40;99.90;;;;;;5050337;28;20199;-74
2022/01/01 02:34:18;;;;;;;20.63;10.90;;;13.40;99.90;;;;;;5022173;28;20800;-74
2022/01/01 02:36:46;;;;;;;20.52;11.73;;;13.40;99.90;;;;;;5021234;28;20218;-74
2022/01/01 02:39:17;;;;;;;19.48;11.95;;;13.30;99.90;;;;;;5042441;28;20203;-74
2022/01/01 02:41:45;;;;;;;19.27;10.95;;;13.30;99.90;;;;;;5013707;28;20192;-75
2022/01/01 02:44:13;;;;;;;20.60;12.52;;;13.30;99.90;;;;;;5030285;28;20685;-74
2022/01/01 02:46:41;;;;;;;18.67;11.40;;;13.30;99.90;;;;;;5014378;28;20211;-75
2022/01/01 02:49:08;;;;;;;18.38;11.20;;;13.30;99.90;;;;;;5029756;28;20215;-75
2022/01/01 02:51:36;;;;;;;17.77;11.32;;;13.30;99.90;;;;;;5011523;28;20265;-74
2022/01/01 02:54:03;;;;;;;16.90;11.80;;;13.30;99.90;;;;;;5030444;28;20210;-74
2022/01/01 02:56:32;;;;;;;17.20;11.90;;;13.30;99.90;;;;;;5028815;28;20226;-75
2022/01/01 02:58:59;;;;;;;20.30;11.90;;;13.30;99.90;;;;;;5029735;28;20211;-74
2022/01/01 03:01:27;;;;;;;20.70;11.90;;;13.30;99.90;;;;;;4993950;28;20216;-74
2022/01/01 03:03:54;;;;;;;20.50;11.90;;;13.30;99.90;;;;;;5010190;28;20200;-74
2022/01/01 03:06:22;;;;;;;18.38;11.88;;;13.30;99.90;;;;;;4998583;28;20223;-75
2022/01/01 03:09:05;;;;;;;18.13;11.82;;;13.30;99.90;;;;;;5029828;28;20204;-75
2022/01/01 03:11:33;;;;;;;17.50;11.80;;;13.40;99.90;;;;;;5029580;28;20195;-75
2022/01/01 03:14:01;;;;;;;20.83;13.45;;;13.40;99.90;;;;;;5029537;28;20731;-75
2022/01/01 03:16:28;;;;;;;21.27;13.20;;;13.30;99.90;;;;;;5013018;28;20220;-75
2022/01/01 03:18:55;;;;;;;19.92;12.55;;;13.30;99.90;;;;;;5013011;28;20199;-74
2022/01/01 03:21:23;;;;;;;18.88;12.38;;;13.30;99.90;;;;;;5029206;28;20211;-75
2022/01/01 03:24:28;;;;;;;25.73;12.55;;;13.40;99.90;;;;;;5029333;28;20196;-74
2022/01/01 03:26:57;;;;;;;22.45;12.77;;;13.40;99.90;;;;;;5012583;28;20246;-75
2022/01/01 03:29:28;;;;;;;24.88;12.98;;;13.40;99.90;;;;;;5028721;28;20206;-74
2022/01/01 03:31:55;;;;;;;22.67;13.82;;;13.40;99.90;;;;;;5028874;28;20196;-74
2022/01/01 03:34:22;;;;;;;25.98;12.68;;;13.40;99.90;;;;;;5029114;28;20204;-74
2022/01/01 03:36:50;;;;;;;23.92;14.15;;;13.40;99.90;;;;;;5013955;28;20212;-74
2022/01/01 03:39:17;;;;;;;18.60;13.30;;;13.40;99.90;;;;;;5025671;28;20200;-75
2022/01/01 03:41:44;;;;;;;18.05;13.43;;;13.40;99.90;;;;;;5033118;28;20573;-74
2022/01/01 03:44:13;;;;;;;27.92;14.25;;;13.40;99.90;;;;;;5010567;28;20230;-74
2022/01/01 03:46:41;;;;;;;18.05;12.63;;;13.50;99.90;;;;;;5028676;28;20593;-75
2022/01/01 03:49:08;;;;;;;22.42;14.05;;;13.40;99.90;;;;;;5029117;28;20207;-75
2022/01/01 03:51:36;;;;;;;23.23;14.35;;;13.40;99.90;;;;;;5005718;28;20192;-75
2022/01/01 03:54:03;;;;;;;23.48;14.02;;;13.50;99.90;;;;;;5010482;28;20194;-75
2022/01/01 03:56:31;;;;;;;22.85;14.52;;;13.50;99.90;;;;;;5026552;28;20231;-75
2022/01/01 03:58:58;;;;;;;22.55;13.95;;;13.50;99.90;;;;;;5006437;28;20200;-75
2022/01/01 04:01:27;;;;;;;24.58;14.27;;;13.50;99.90;;;;;;5027007;28;20212;-75
2022/01/01 04:03:54;;;;;;;22.20;13.85;;;13.50;99.90;;;;;;5029770;28;20211;-75
2022/01/01 04:06:21;;;;;;;19.10;13.85;;;13.50;99.90;;;;;;5041664;28;20215;-75
2022/01/01 04:08:49;;;;;;;23.58;13.98;;;13.50;99.90;;;;;;5015063;28;20203;-75
2022/01/01 04:11:16;;;;;;;20.92;13.38;;;13.50;99.90;;;;;;5010626;28;20194;-77
2022/01/01 04:13:44;;;;;;;22.02;13.25;;;13.50;99.90;;;;;;5026048;28;20196;-74
2022/01/01 04:16:11;;;;;;;20.92;13.80;;;13.50;99.90;;;;;;5022297;28;20789;-75
2022/01/01 04:18:40;;;;;;;22.92;14.35;;;13.50;99.90;;;;;;5028662;28;20563;-75
2022/01/01 04:21:08;;;;;;;24.30;13.70;;;13.50;99.90;;;;;;5009656;28;20212;-75
2022/01/01 04:23:36;;;;;;;20.63;13.07;;;13.50;99.90;;;;;;5006555;28;20188;-74
2022/01/01 04:26:03;;;;;;;23.80;14.27;;;13.50;99.90;;;;;;5026139;28;20554;-76
2022/01/01 04:28:31;;;;;;;23.40;13.60;;;13.50;99.90;;;;;;5010092;28;20298;-76
2022/01/01 04:30:58;;;;;;;24.30;13.63;;;13.50;99.90;;;;;;5028223;28;20198;-75
2022/01/01 04:33:25;;;;;;;22.35;13.35;;;13.40;99.90;;;;;;5013640;28;20542;-75
2022/01/01 04:35:54;;;;;;;19.95;13.63;;;13.40;99.90;;;;;;5025506;28;20686;-75
2022/01/01 04:38:35;;;;;;;23.80;14.98;;;13.40;99.90;;;;;;5023026;28;20208;-75
2022/01/01 04:41:03;;;;;;;23.70;12.95;;;13.40;99.90;;;;;;5009769;28;20210;-74
2022/01/01 04:43:30;;;;;;;23.92;13.90;;;13.40;99.90;;;;;;5007245;28;20184;-75
2022/01/01 04:45:58;;;;;;;23.30;13.25;;;13.40;99.90;;;;;;5023783;28;20196;-74
2022/01/01 04:48:25;;;;;;;19.50;12.57;;;13.40;99.90;;;;;;5021422;28;20561;-75
2022/01/01 04:50:57;;;;;;;22.15;13.38;;;13.40;99.90;;;;;;5008956;28;20206;-74
2022/01/01 04:53:24;;;;;;;19.90;13.23;;;13.40;99.90;;;;;;5008166;28;20567;-75
2022/01/01 04:55:52;;;;;;;21.38;13.15;;;13.40;99.90;;;;;;5011819;28;20556;-76
2022/01/01 04:58:19;;;;;;;18.58;12.05;;;13.40;99.90;;;;;;5021114;28;20705;-75
2022/01/01 05:00:46;;;;;;;19.77;12.55;;;13.40;99.90;;;;;;5008180;28;20211;-74
2022/01/01 05:03:14;;;;;;;21.00;12.77;;;13.40;99.90;;;;;;5026762;28;20207;-74
2022/01/01 05:05:41;;;;;;;18.15;12.50;;;13.40;99.90;;;;;;5022806;28;20721;-74
2022/01/01 05:08:10;;;;;;;20.80;12.43;;;13.40;99.90;;;;;;5003951;28;20223;-75
2022/01/01 05:10:37;;;;;;;18.58;11.65;;;13.40;99.90;;;;;;5010707;28;20207;-74
2022/01/01 05:13:04;;;;;;;18.30;11.88;;;13.40;99.90;;;;;;5027568;28;20199;-74
2022/01/01 05:15:32;;;;;;;19.98;12.13;;;13.50;99.90;;;;;;5027738;28;20597;-74
2022/01/01 05:17:59;;;;;;;19.13;11.15;;;13.40;99.90;;;;;;5025988;28;20706;-75
2022/01/01 05:20:27;;;;;;;17.17;11.27;;;13.40;99.90;;;;;;4992136;28;20196;-75
2022/01/01 05:22:54;;;;;;;18.50;10.68;;;13.40;99.90;;;;;;5007477;28;20192;-74
2022/01/01 05:25:23;;;;;;;18.10;11.88;;;13.40;99.90;;;;;;5027680;28;20524;-75
2022/01/01 05:27:50;;;;;;;19.38;11.43;;;13.40;99.90;;;;;;5027041;28;20231;-74
2022/01/01 05:30:17;;;;;;;16.60;9.73;;;13.40;99.90;;;;;;5007354;28;20655;-74
2022/01/01 05:32:45;;;;;;;12.73;9.70;;;13.40;99.90;;;;;;5030853;28;20199;-75
2022/01/01 05:35:15;;;;;;;15.50;9.13;;;13.50;99.90;;;;;;5011229;28;20210;-75
2022/01/01 05:37:43;;;;;;;17.98;10.25;;;13.40;99.90;;;;;;5014605;28;20225;-75
2022/01/01 05:40:11;;;;;;;19.60;9.25;;;13.40;99.90;;;;;;5007543;28;20196;-74
2022/01/01 05:42:39;;;;;;;13.93;8.90;;;13.40;99.90;;;;;;5026030;28;20219;-75
2022/01/01 05:45:07;;;;;;;14.63;8.38;;;13.40;99.90;;;;;;5011334;28;20196;-74
2022/01/01 05:47:43;;;;;;;12.30;8.20;;;13.40;99.90;;;;;;5006959;28;20984;-75
2022/01/01 05:50:11;;;;;;;13.50;8.23;;;13.50;99.90;;;;;;5010488;28;20191;-75
2022/01/01 05:52:38;;;;;;;17.92;9.07;;;13.40;99.90;;;;;;5014586;28;20200;-75
2022/01/01 05:55:06;;;;;;;17.83;8.57;;;13.40;99.90;;;;;;5013963;28;20203;-74
2022/01/01 05:57:33;;;;;;;14.77;8.57;;;13.50;99.90;;;;;;5024437;28;20222;-75
2022/01/01 06:00:03;;;;;;;14.13;8.18;;;13.50;99.90;;;;;;5014836;28;20204;-75
2022/01/01 06:02:41;;;;;;;14.10;7.65;;;13.50;99.90;;;;;;5016954;28;20211;-75
2022/01/01 06:05:08;;;;;;;12.55;7.15;;;13.50;99.90;;;;;;5007937;28;20207;-75
2022/01/01 06:07:36;;;;;;;15.43;8.65;;;13.50;99.90;;;;;;5008019;28;20704;-75
2022/01/01 06:10:04;;;;;;;12.80;7.75;;;13.50;99.90;;;;;;5030293;28;20326;-74
2022/01/01 06:12:31;;;;;;;13.55;7.47;;;13.50;99.90;;;;;;5011968;28;20199;-74
2022/01/01 06:14:59;;;;;;;11.85;6.95;;;13.50;99.90;;;;;;5015468;28;20223;-74
2022/01/01 06:17:27;;;;;;;13.52;9.45;;;13.50;99.90;;;;;;5013825;28;20572;-75
2022/01/01 06:19:55;;;;;;;17.40;11.57;;;13.50;99.90;;;;;;5014300;28;20195;-75
2022/01/01 06:22:25;;;;;;;18.30;11.07;;;13.50;99.90;;;;;;5014511;28;20219;-75
2022/01/01 06:24:52;;;;;;;18.08;9.65;;;13.50;99.90;;;;;;5030102;28;20214;-75
2022/01/01 06:27:20;;;;;;;16.73;8.77;;;13.50;99.90;;;;;;5030055;28;20227;-75
2022/01/01 06:29:47;;;;;;;13.45;8.98;;;13.50;99.90;;;;;;5030203;28;20192;-75
2022/01/01 06:32:14;;;;;;;15.85;8.45;;;13.50;99.90;;;;;;5014718;28;20645;-74
2022/01/01 06:34:43;;;;;;;13.18;7.18;;;13.50;99.90;;;;;;5029975;28;20720;-75
2022/01/01 06:37:10;;;;;;;19.08;7.50;;;13.50;99.90;;;;;;5030151;28;20219;-74
2022/01/01 06:39:58;;;;;;;14.20;7.60;;;13.50;99.90;;;;;;5030378;28;20210;-75
2022/01/01 06:42:25;;;;;;;11.80;7.05;;;13.50;99.90;;;;;;5013749;28;20220;-75
2022/01/01 06:44:52;;;;;;;15.65;7.97;;;13.50;99.90;;;;;;5013698;28;20203;-74
2022/01/01 06:47:20;;;;;;;12.25;6.90;;;13.50;99.90;;;;;;5029233;28;20238;-74
2022/01/01 06:49:51;;;;;;;14.23;6.95;;;13.50;99.90;;;;;;5030063;28;20207;-74
2022/01/01 06:52:19;;;;;;;13.55;7.10;;;13.50;99.90;;;;;;5029272;28;20210;-74
2022/01/01 06:54:46;;;;;;;12.30;6.68;;;13.50;99.90;;;;;;5019198;28;20198;-75
2022/01/01 06:57:13;;;;;;;11.93;6.38;;;13.50;99.90;;;;;;5029948;28;20239;-74
2022/01/01 06:59:41;;;;;;;11.07;6.97;;;13.50;99.90;;;;;;5030073;28;20214;-74
2022/01/01 07:02:08;;;;;;;11.90;7.38;;;13.50;99.90;;;;;;5012635;28;20685;-74
2022/01/01 07:04:37;;;;;;;12.95;6.38;;;13.50;99.90;;;;;;5028861;28;20200;-75
2022/01/01 07:07:06;;;;;;;9.30;6.10;;;13.50;99.90;;;;;;5013749;28;20212;-76
2022/01/01 07:09:33;;;;;;;10.55;6.35;;;13.50;99.90;;;;;;5030375;28;20609;-75
2022/01/01 07:12:05;;;;;;;11.70;6.63;;;13.50;99.90;;;;;;5022917;28;20199;-74
2022/01/01 07:14:33;;;;;;;11.68;6.97;;;13.80;99.90;;;;;;5029129;28;20200;-74
2022/01/01 07:17:01;;;;;;;10.27;5.60;;;13.70;99.90;;;;;;5018839;28;20233;-75
2022/01/01 07:19:29;;;;;;;13.77;6.70;;;13.80;99.90;;;;;;5011294;28;20199;-74
2022/01/01 07:21:59;;;;;;;12.00;5.70;;;13.60;99.90;;;;;;5021521;28;20220;-77
2022/01/01 07:24:28;;;;;;;11.70;6.05;;;13.60;99.90;;;;;;5008888;28;20211;-80
2022/01/01 07:26:56;;;;;;;12.00;6.35;;;13.60;99.90;;;;;;5009926;28;20227;-76
2022/01/01 07:29:31;;;;;;;10.90;5.95;;;13.60;99.90;;;;;;5012561;28;20203;-75
2022/01/01 07:31:58;;;;;;;9.02;5.85;;;13.60;99.90;;;;;;5008473;28;20188;-76
2022/01/01 07:34:32;;;;;;;10.98;5.78;;;13.60;99.90;;;;;;5007408;28;20280;-75
2022/01/01 07:37:01;;;;;;;11.45;5.13;;;13.60;99.90;;;;;;4947099;28;20227;-75
2022/01/01 07:39:32;;;;;;;11.30;4.88;;;13.60;99.90;;;;;;5009944;28;20211;-74
2022/01/01 07:42:21;;;;;;;8.77;5.72;;;13.50;99.90;;;;;;5026672;28;20216;-75
2022/01/01 07:44:49;;;;;;;9.70;5.43;;;13.50;99.90;;;;;;5026895;28;20202;-75
2022/01/01 07:47:29;;;;;;;9.20;5.40;;;13.60;99.90;;;;;;5014014;28;20226;-75
2022/01/01 07:50:04;;;;;;;11.90;5.13;;;13.60;99.90;;;;;;5025603;28;20198;-76
2022/01/01 07:52:32;;;;;;;8.93;5.22;;;13.60;99.90;;;;;;5008556;28;20214;-79
2022/01/01 07:55:00;;;;;;;11.43;4.45;;;13.60;99.90;;;;;;5028617;28;20200;-76
2022/01/01 07:57:28;;;;;;;11.80;5.60;;;13.60;99.90;;;;;;5020963;28;20694;-75
2022/01/01 08:00:23;;;;;;;9.52;4.45;;;13.60;99.90;;;;;;5003213;28;20692;-76
2022/01/01 08:02:50;;;;;;;11.43;5.05;;;13.60;99.90;;;;;;5008289;28;20212;-75
2022/01/01 08:05:18;;;;;;;7.65;4.75;;;13.60;99.90;;;;;;5023386;28;20207;-75
2022/01/01 08:07:46;;;;;;;10.00;4.57;;;13.60;99.90;;;;;;5020700;28;20783;-75
2022/01/01 08:10:15;;;;;;;9.50;5.15;;;13.60;99.90;;;;;;5017979;28;20211;-76
2022/01/01 08:12:42;;;;;;;8.85;4.88;;;13.60;99.90;;;;;;5017238;28;20672;-75
2022/01/01 08:15:10;;;;;;;9.48;4.60;;;13.60;99.90;;;;;;5031040;28;20219;-76
2022/01/01 08:17:37;;;;;;;10.63;4.45;;;13.60;99.90;;;;;;5029613;28;20222;-76
2022/01/01 08:20:06;;;;;;;6.72;4.50;;;13.60;99.90;;;;;;5023175;28;20203;-75
2022/01/01 08:22:52;;;;;;;8.07;4.35;;;13.60;99.90;;;;;;5014330;28;20211;-77
2022/01/01 08:25:21;;;;;;;8.93;4.72;;;13.60;99.90;;;;;;5010296;28;20188;-74
2022/01/01 08:27:48;;;;;;;7.88;4.55;;;13.60;99.90;;;;;;5016231;28;20702;-75
2022/01/01 08:30:16;;;;;;;9.20;4.38;;;13.70;99.90;;;;;;5028608;28;20573;-75
2022/01/01 08:32:43;;;;;;;8.90;3.85;;;13.70;99.90;;;;;;5026621;28;20203;-75
2022/01/01 08:35:11;;;;;;;7.00;3.97;;;13.70;99.90;;;;;;5022109;28;20204;-76
2022/01/01 08:37:43;;;;;;;11.48;4.63;;;13.70;99.90;;;;;;5022343;28;20219;-75
2022/01/01 08:40:25;;;;;;;7.38;4.28;;;13.70;99.90;;;;;;5024793;28;20200;-78
2022/01/01 08:43:25;;;;;;;9.93;3.97;;;13.70;99.90;;;;;;5004751;28;20216;-76
2022/01/01 08:45:53;;;;;;;8.85;4.22;;;13.70;99.90;;;;;;5025854;28;20657;-77
2022/01/01 08:48:20;;;;;;;7.25;3.78;;;13.70;99.90;;;;;;5032581;28;20230;-77
2022/01/01 08:51:12;;;;;;;9.07;3.90;;;13.70;99.90;;;;;;5031317;28;20210;-77
2022/01/01 08:53:39;;;;;;;5.25;3.05;;;13.70;99.90;;;;;;5031438;28;20191;-77
2022/01/01 08:56:08;;;;;;;9.48;3.70;;;13.70;99.90;;;;;;5031275;28;20205;-77
2022/01/01 08:58:35;;;;;;;7.05;3.72;;;13.70;99.90;;;;;;5026246;28;20691;-77
2022/01/01 09:01:03;;;;;;;7.55;3.85;;;13.70;99.90;;;;;;5031036;28;20572;-77
2022/01/01 09:03:31;;;;;;;11.68;3.65;;;13.80;99.90;;;;;;5027724;28;20218;-77
2022/01/01 09:05:58;;;;;;;7.40;3.40;;;13.80;99.90;;;;;;5018051;28;20187;-77
2022/01/01 09:08:25;;;;;;;8.75;3.33;;;13.80;99.90;;;;;;5030724;28;20199;-77
2022/01/01 09:10:53;;;;;;;8.85;3.50;;;13.80;99.90;;;;;;5021842;28;20200;-77
2022/01/01 09:13:21;;;;;;;8.57;3.15;;;13.80;99.90;;;;;;5028834;28;20196;-77
2022/01/01 09:15:52;;;;;;;6.20;3.53;;;13.80;99.90;;;;;;5011990;28;20198;-77
2022/01/01 09:18:19;;;;;;;5.05;3.20;;;13.90;99.90;;;;;;5027194;28;20220;-76
2022/01/01 09:20:48;;;;;;;6.55;2.83;;;14.00;99.90;;;;;;5002747;28;20199;-77
2022/01/01 09:23:15;;;;;;;11.02;3.65;;;14.00;99.90;;;;;;5031234;28;20226;-77
2022/01/01 09:25:43;;;;;;;9.48;3.83;;;14.10;99.90;;;;;;5024723;28;20195;-77
2022/01/01 09:28:47;;;;;;;8.50;4.03;;;14.10;99.90;;;;;;5025948;28;20223;-77
2022/01/01 09:31:14;;;;;;;7.60;3.10;;;14.20;99.90;;;;;;5031633;28;20213;-77
2022/01/01 09:33:41;;;;;;;5.97;3.05;;;14.20;99.90;;;;;;5035392;28;20199;-77
2022/01/01 09:36:12;;;;;;;6.43;2.90;;;14.10;99.90;;;;;;5033984;28;20205;-79
2022/01/01 09:38:40;;;;;;;4.78;2.75;;;14.10;99.90;;;;;;5035470;28;20203;-77
2022/01/01 09:41:09;;;;;;;9.65;4.35;;;14.10;99.90;;;;;;5023191;28;20207;-77
2022/01/01 09:43:36;;;;;;;3.90;2.70;;;14.20;99.90;;;;;;5027794;28;20235;-77
2022/01/01 09:46:06;;;;;;;8.60;3.50;;;14.30;99.90;;;;;;5029675;28;20207;-77
2022/01/01 09:48:33;;;;;;;6.25;3.33;;;14.30;99.90;;;;;;5031010;28;20192;-77
2022/01/01 09:51:03;;;;;;;6.93;2.85;;;14.40;99.90;;;;;;5036958;28;20198;-77
2022/01/01 09:53:32;;;;;;;11.82;3.88;;;14.40;99.90;;;;;;5031279;28;20206;-77
2022/01/01 09:56:02;;;;;;;6.97;2.80;;;14.40;99.90;;;;;;5022651;28;20553;-77
2022/01/01 09:58:31;;;;;;;7.18;2.50;;;14.40;99.90;;;;;;5014399;28;20195;-77
2022/01/01 10:00:58;;;;;;;4.10;2.83;;;14.40;99.90;;;;;;5031153;28;20200;-77
2022/01/01 10:03:34;;;;;;;6.05;3.05;;;14.40;99.90;;;;;;5015560;28;20367;-77
2022/01/01 10:06:05;;;;;;;4.50;3.05;;;14.30;99.90;;;;;;5031424;28;20195;-77
2022/01/01 10:08:33;;;;;;;7.38;3.00;;;14.30;99.90;;;;;;5042230;28;20203;-77
2022/01/01 10:11:00;;;;;;;9.55;3.20;;;14.30;99.90;;;;;;5025231;28;20207;-77
2022/01/01 10:13:30;;;;;;;3.72;2.78;;;14.30;99.90;;;;;;5030561;28;20188;-77
2022/01/01 10:16:10;;;;;;;8.15;2.92;;;14.40;99.90;;;;;;5014429;28;20203;-77
2022/01/01 10:18:55;;;;;;;5.97;2.58;;;14.40;99.90;;;;;;5030456;28;20658;-77
2022/01/01 10:31:58;;;;;;;7.32;2.88;;;14.40;99.90;;;;;;4996534;28;20446;-77
2022/01/01 10:38:05;;;;;;;8.07;2.78;;;14.40;99.90;;;;;;4908822;29;20234;-77
2022/01/01 10:40:41;;;;;;;8.77;2.80;;;14.40;99.90;;;;;;4974923;28;20195;-76
2022/01/01 10:43:37;;;;;;;5.60;2.85;;;14.40;99.90;;;;;;5015208;28;20214;-77
2022/01/01 10:46:14;;;;;;;6.82;3.08;;;14.40;99.90;;;;;;5007559;28;20681;-77
2022/01/01 10:52:28;;;;;;;7.72;3.55;;;14.40;99.90;;;;;;4987294;28;20199;-76
2022/01/01 11:01:04;;;;;;;7.43;2.53;;;14.50;99.90;;;;;;5019615;28;20223;-76
2022/01/01 11:03:55;;;;;;;6.75;2.35;;;14.60;99.90;;;;;;5021358;28;20682;-77
2022/01/01 11:06:32;;;;;;;6.32;3.40;;;14.60;99.90;;;;;;5022994;28;20219;-76
2022/01/01 11:09:10;;;;;;;8.15;3.17;;;14.60;99.90;;;;;;5030311;28;20203;-76
2022/01/01 11:11:59;;;;;;;5.63;3.22;;;14.70;99.90;;;;;;5028342;28;20196;-77
2022/01/01 11:14:42;;;;;;;5.05;3.33;;;14.70;99.90;;;;;;5028983;28;20587;-79
2022/01/01 11:17:43;;;;;;;4.60;2.50;;;14.70;99.90;;;;;;5017061;28;20221;-78
2022/01/01 11:24:38;;;;;;;12.18;3.63;;;14.80;99.90;;;;;;5030558;28;20211;-79
2022/01/01 11:27:10;;;;;;;6.45;3.67;;;14.80;99.90;;;;;;4995170;28;20232;-77
2022/01/01 11:29:53;;;;;;;5.15;2.28;;;14.90;99.90;;;;;;5023480;28;20195;-78
2022/01/01 11:32:32;;;;;;;8.80;2.38;;;14.80;99.90;;;;;;5025866;28;20206;-79
2022/01/01 11:35:02;;;;;;;6.32;2.35;;;14.80;99.90;;;;;;5033533;28;20191;-78
2022/01/01 11:37:48;;;;;;;6.05;2.50;;;14.80;99.90;;;;;;5014637;28;20223;-76
2022/01/01 11:40:39;;;;;;;6.68;2.30;;;14.90;99.90;;;;;;5011078;28;20204;-78
2022/01/01 11:43:52;;;;;;;5.32;2.20;;;14.90;99.90;;;;;;5026681;28;20206;-75
2022/01/01 11:46:35;;;;;;;6.22;2.92;;;14.90;99.90;;;;;;5017775;28;20267;-79
2022/01/01 11:49:14;;;;;;;4.93;2.35;;;15.00;99.90;;;;;;5013508;28;20202;-78
2022/01/01 11:51:52;;;;;;;5.93;2.05;;;15.00;99.90;;;;;;5025560;28;20201;-79
2022/01/01 11:58:22;;;;;;;5.72;2.20;;;15.50;99.90;;;;;;5017385;28;20206;-78
2022/01/01 12:01:15;;;;;;;5.10;2.30;;;15.80;99.90;;;;;;5021479;28;20199;-76
2022/01/01 12:03:57;;;;;;;3.33;2.17;;;16.00;99.90;;;;;;5010307;28;20670;-79
2022/01/01 12:06:28;;;;;;;5.28;2.30;;;15.60;99.90;;;;;;5022291;28;20222;-77
2022/01/01 12:09:35;;;;;;;3.58;2.13;;;15.50;99.90;;;;;;4996771;28;20212;-77
2022/01/01 12:12:13;;;;;;;3.20;2.08;;;15.50;99.90;;;;;;5024882;28;20207;-77
2022/01/01 12:14:54;;;;;;;4.50;2.20;;;15.40;99.90;;;;;;5021939;28;20201;-78
2022/01/01 12:17:29;;;;;;;4.63;2.50;;;15.30;99.90;;;;;;5009486;28;20219;-78
2022/01/01 12:20:21;;;;;;;4.80;2.13;;;15.20;99.90;;;;;;5032745;28;20226;-78
2022/01/01 12:22:56;;;;;;;6.28;2.65;;;15.20;99.90;;;;;;5007819;28;20708;-78
2022/01/01 12:26:03;;;;;;;;;;;;;;;;;;;;;
2022/01/01 12:29:21;;;;;;;4.00;2.17;;;15.20;99.90;;;;;;5008977;28;20188;-78
2022/01/01 12:32:07;;;;;;;6.63;2.67;;;15.20;99.90;;;;;;4998170;28;20206;-77
2022/01/01 12:38:11;;;;;;;4.97;2.55;;;15.30;99.90;;;;;;5016863;28;20226;-78
2022/01/01 12:41:22;;;;;;;6.63;2.25;;;15.40;99.90;;;;;;5022956;28;20657;-77
2022/01/01 12:47:24;;;;;;;5.40;2.83;;;15.30;99.90;;;;;;5021941;28;20230;-78
2022/01/01 12:50:24;;;;;;;5.10;2.63;;;15.30;99.90;;;;;;4996327;28;20553;-78
2022/01/01 12:53:16;;;;;;;5.57;2.67;;;15.30;99.90;;;;;;5003533;28;20200;-78
2022/01/01 12:56:02;;;;;;;5.85;2.42;;;15.40;99.90;;;;;;5008028;28;20192;-77
2022/01/01 13:02:09;;;;;;;4.15;2.40;;;15.20;99.90;;;;;;4995339;28;20664;-78
2022/01/01 13:04:43;;;;;;;3.47;1.85;;;15.30;99.90;;;;;;5020633;28;20227;-78
2022/01/01 13:07:22;;;;;;;5.07;2.25;;;15.20;99.90;;;;;;5028138;28;20227;-77
2022/01/01 13:10:08;;;;;;;3.38;2.10;;;15.10;99.90;;;;;;5006158;28;20195;-77
2022/01/01 13:12:39;;;;;;;4.95;2.22;;;15.20;99.90;;;;;;5014518;28;20191;-77
2022/01/01 13:18:19;;;;;;;6.70;2.30;;;15.20;99.90;;;;;;5027795;28;20218;-78
2022/01/01 13:20:56;;;;;;;6.43;2.38;;;15.20;99.90;;;;;;5028638;28;20196;-78
2022/01/01 13:23:36;;;;;;;6.90;2.08;;;15.20;99.90;;;;;;5008756;28;20195;-78
2022/01/01 13:26:12;;;;;;;4.45;1.88;;;15.20;99.90;;;;;;5004462;28;20207;-78
2022/01/01 13:28:58;;;;;;;4.20;2.03;;;15.20;99.90;;;;;;5023197;28;20208;-78
2022/01/01 13:31:55;;;;;;;6.45;2.53;;;15.20;99.90;;;;;;5010719;28;20202;-78
2022/01/01 13:34:32;;;;;;;4.65;2.08;;;15.10;99.90;;;;;;5044102;28;20207;-77
2022/01/01 13:37:36;;;;;;;3.03;2.00;;;15.10;99.90;;;;;;5022797;28;20254;-78
2022/01/01 13:40:25;;;;;;;;;;;;;;;;;;;;;
2022/01/01 13:43:12;;;;;;;5.38;2.53;;;15.10;99.90;;;;;;5028977;28;20200;-78
2022/01/01 13:46:06;;;;;;;5.72;2.65;;;15.10;99.90;;;;;;5004719;28;20237;-78
2022/01/01 13:51:36;;;;;;;2.75;2.10;;;15.10;99.90;;;;;;5012077;28;20218;-78
2022/01/01 13:54:20;;;;;;;4.15;2.47;;;15.10;99.90;;;;;;5010871;28;20196;-78
2022/01/01 13:57:00;;;;;;;5.32;2.00;;;15.10;99.90;;;;;;5035785;28;20212;-78